Time;durP1;ratioP1;P1;durP2;ratioP2;P2;SDS_P1;SDS_P2;PMS_P1;PMS_P2;Temp;Humidity;BMP_temperature;BMP_pressure;BME280_temperature;BME280_humidity;BME280_pressure;Samples;Min_cycle;Max_cycle;Signal;HPM_P1;HPM_P2
2022/06/10 00:02:08;;;;;;;13.30;5.77;;;12.90;99.90;;;;;;5012500;28;20429;-82
2022/06/10 00:04:34;;;;;;;9.03;5.70;;;12.90;99.90;;;;;;5012297;28;20406;-82
2022/06/10 00:07:01;;;;;;;5.80;4.72;;;12.90;99.90;;;;;;4994258;28;20400;-82
2022/06/10 00:09:26;;;;;;;6.35;4.53;;;12.90;99.90;;;;;;5012222;28;20865;-82
2022/06/10 00:11:52;;;;;;;7.25;4.53;;;12.90;99.90;;;;;;5012184;28;20437;-82
2022/06/10 00:14:17;;;;;;;5.35;4.65;;;12.90;99.90;;;;;;4994605;28;20485;-82
2022/06/10 00:16:43;;;;;;;6.23;4.53;;;12.90;99.90;;;;;;5012132;28;20387;-82
2022/06/10 00:19:09;;;;;;;7.43;4.75;;;12.90;99.90;;;;;;5012337;28;20418;-82
2022/06/10 00:21:34;;;;;;;5.40;4.70;;;12.80;99.90;;;;;;4992910;28;20402;-81
2022/06/10 00:24:00;;;;;;;7.28;4.68;;;12.80;99.90;;;;;;4994424;28;20453;-82
2022/06/10 00:26:26;;;;;;;8.02;5.35;;;12.70;99.90;;;;;;5012192;28;20947;-81
2022/06/10 00:28:51;;;;;;;8.27;5.10;;;12.70;99.90;;;;;;5011837;28;20942;-81
2022/06/10 00:31:18;;;;;;;6.63;4.93;;;12.70;99.90;;;;;;5011823;28;20395;-82
2022/06/10 00:33:44;;;;;;;7.63;5.15;;;12.60;99.90;;;;;;4994205;28;20388;-82
2022/06/10 00:36:10;;;;;;;6.93;5.17;;;12.50;99.90;;;;;;4993656;28;20379;-82
2022/06/10 00:38:37;;;;;;;7.65;5.03;;;12.50;99.90;;;;;;5011972;28;20958;-82
2022/06/10 00:41:03;;;;;;;5.22;4.70;;;12.50;99.90;;;;;;5011104;28;20379;-81
2022/06/10 00:43:33;;;;;;;6.55;4.80;;;12.40;99.90;;;;;;5011676;28;20386;-81
2022/06/10 00:46:27;;;;;;;8.43;5.27;;;12.40;99.90;;;;;;5011594;28;20482;-82
2022/06/10 00:49:01;;;;;;;6.88;4.38;;;12.40;99.90;;;;;;5011755;28;20383;-82
2022/06/10 00:51:42;;;;;;;5.50;4.63;;;12.30;99.90;;;;;;5011246;28;20407;-82
2022/06/10 00:54:24;;;;;;;9.45;5.53;;;12.30;99.90;;;;;;5011370;28;20375;-81
2022/06/10 00:56:55;;;;;;;5.43;4.78;;;12.20;99.90;;;;;;5011325;28;20419;-82
2022/06/10 00:59:24;;;;;;;5.57;4.70;;;12.10;99.90;;;;;;5011361;28;20467;-82
2022/06/10 01:01:57;;;;;;;6.05;5.38;;;12.10;99.90;;;;;;5011495;28;20398;-82
2022/06/10 01:04:24;;;;;;;6.57;4.93;;;12.10;99.90;;;;;;5010816;28;20387;-82
2022/06/10 01:06:50;;;;;;;5.20;4.70;;;12.00;99.90;;;;;;5010494;28;20876;-81
2022/06/10 01:09:16;;;;;;;5.93;5.33;;;12.00;99.90;;;;;;5011199;28;20379;-81
2022/06/10 01:12:03;;;;;;;5.33;4.83;;;12.00;99.90;;;;;;5011385;28;20805;-81
2022/06/10 01:14:56;;;;;;;5.18;4.78;;;12.00;99.90;;;;;;5011509;28;20375;-81
2022/06/10 01:17:34;;;;;;;4.85;4.35;;;12.00;99.90;;;;;;5011521;28;20378;-81
2022/06/10 01:20:15;;;;;;;5.28;4.70;;;12.00;99.90;;;;;;4993270;28;20531;-81
2022/06/10 01:23:13;;;;;;;5.30;4.80;;;11.80;99.90;;;;;;4993751;28;20403;-81
2022/06/10 01:26:16;;;;;;;5.22;4.80;;;12.00;99.90;;;;;;4993624;28;20468;-82
2022/06/10 01:29:03;;;;;;;5.07;4.67;;;11.90;99.90;;;;;;5011083;28;20391;-81
2022/06/10 01:31:39;;;;;;;4.90;4.47;;;11.90;99.90;;;;;;5010232;28;20464;-81
2022/06/10 01:34:26;;;;;;;5.28;4.78;;;12.00;99.90;;;;;;5010758;28;20383;-81
2022/06/10 01:37:09;;;;;;;5.07;4.68;;;11.90;99.90;;;;;;4992706;28;20422;-81
2022/06/10 01:40:03;;;;;;;5.32;4.85;;;11.80;99.90;;;;;;4992725;28;20466;-81
2022/06/10 01:42:35;;;;;;;4.80;4.40;;;11.90;99.90;;;;;;5010553;28;20399;-82
2022/06/10 01:45:13;;;;;;;5.93;5.03;;;11.80;99.90;;;;;;4993051;28;20955;-81
2022/06/10 01:47:44;;;;;;;4.85;4.35;;;11.80;99.90;;;;;;5010333;28;20438;-81
2022/06/10 01:50:16;;;;;;;6.40;4.88;;;11.70;99.90;;;;;;5010017;28;20403;-81
2022/06/10 01:52:52;;;;;;;5.67;5.07;;;11.70;99.90;;;;;;5009956;28;20391;-81
2022/06/10 01:55:26;;;;;;;4.38;4.00;;;11.50;99.90;;;;;;4992426;28;20510;-82
2022/06/10 01:58:05;;;;;;;5.70;4.93;;;11.50;99.90;;;;;;4992303;28;20387;-81
2022/06/10 02:00:35;;;;;;;5.70;4.67;;;11.40;99.90;;;;;;5009340;28;20433;-82
2022/06/10 02:03:06;;;;;;;5.25;4.75;;;11.40;99.90;;;;;;4992454;28;20462;-82
2022/06/10 02:05:45;;;;;;;5.03;4.60;;;11.40;99.90;;;;;;5010060;28;20371;-81
2022/06/10 02:08:22;;;;;;;4.78;4.38;;;11.30;99.90;;;;;;4991608;28;20407;-81
2022/06/10 02:10:56;;;;;;;5.00;4.60;;;11.40;99.90;;;;;;5009520;28;20473;-82
2022/06/10 02:13:28;;;;;;;6.25;4.88;;;11.30;99.90;;;;;;4992157;28;20386;-82
2022/06/10 02:15:59;;;;;;;5.30;4.68;;;11.30;99.90;;;;;;4976221;28;20943;-81
2022/06/10 02:18:32;;;;;;;5.65;5.13;;;11.20;99.90;;;;;;4992236;28;20453;-81
2022/06/10 02:21:03;;;;;;;6.15;4.60;;;11.20;99.90;;;;;;4991693;28;20431;-81
2022/06/10 02:23:36;;;;;;;5.83;5.23;;;11.20;99.90;;;;;;5009390;28;20838;-81
2022/06/10 02:26:04;;;;;;;5.32;4.65;;;11.10;99.90;;;;;;4991835;28;20391;-81
2022/06/10 02:28:41;;;;;;;9.00;4.75;;;11.10;99.90;;;;;;5009496;28;20375;-83
2022/06/10 02:31:32;;;;;;;6.32;4.43;;;11.10;99.90;;;;;;5009407;28;20398;-81
2022/06/10 02:33:59;;;;;;;5.00;4.50;;;11.10;99.90;;;;;;5009347;28;20411;-81
2022/06/10 02:36:27;;;;;;;6.70;4.57;;;11.10;99.90;;;;;;4991887;28;20964;-80
2022/06/10 02:39:23;;;;;;;11.65;5.18;;;11.10;99.90;;;;;;4991452;28;20495;-82
2022/06/10 02:42:14;;;;;;;42.78;8.88;;;11.00;99.90;;;;;;5009288;28;20564;-82
2022/06/10 02:44:45;;;;;;;29.50;7.60;;;11.00;99.90;;;;;;5008530;28;20441;-81
2022/06/10 02:47:33;;;;;;;21.65;6.90;;;11.00;99.90;;;;;;5009056;28;20959;-80
2022/06/10 02:49:59;;;;;;;20.57;6.63;;;10.90;99.90;;;;;;4991891;28;20403;-81
2022/06/10 02:52:29;;;;;;;17.07;6.73;;;;;;;;;;4991627;28;21607;-81
2022/06/10 02:54:55;;;;;;;16.75;5.60;;;10.70;99.90;;;;;;5009239;28;20382;-80
2022/06/10 03:01:11;;;;;;;9.23;5.13;;;11.00;99.90;;;;;;4991566;28;20395;-80
2022/06/10 03:03:26;;;;;;;11.93;5.70;;;11.00;99.90;;;;;;5009080;28;20456;-81
2022/06/10 03:06:22;;;;;;;12.55;5.18;;;11.10;99.90;;;;;;4991196;28;20441;-81
2022/06/10 03:08:57;;;;;;;10.27;5.35;;;11.10;99.90;;;;;;4991162;28;20452;-81
2022/06/10 03:11:38;;;;;;;8.45;5.63;;;11.10;99.90;;;;;;5009062;28;20851;-81
2022/06/10 03:14:41;;;;;;;8.95;5.40;;;11.10;99.90;;;;;;4991550;28;20383;-81
2022/06/10 03:17:18;;;;;;;7.93;5.13;;;11.10;99.90;;;;;;4998601;28;20453;-81
2022/06/10 03:19:56;;;;;;;14.30;5.70;;;11.10;99.90;;;;;;4991218;28;20390;-82
2022/06/10 03:22:36;;;;;;;8.80;5.40;;;11.10;99.90;;;;;;5008672;28;20440;-81
2022/06/10 03:25:13;;;;;;;6.10;5.25;;;11.20;99.90;;;;;;5008688;28;20391;-81
2022/06/10 03:27:54;;;;;;;6.13;4.97;;;11.20;99.90;;;;;;5008757;28;20383;-81
2022/06/10 03:30:24;;;;;;;6.13;5.07;;;11.20;99.90;;;;;;5008977;28;20411;-81
2022/06/10 03:33:07;;;;;;;5.85;5.10;;;11.20;99.90;;;;;;5009128;28;20371;-81
2022/06/10 03:35:40;;;;;;;6.50;4.82;;;11.20;99.90;;;;;;4991469;28;20414;-82
2022/06/10 03:38:07;;;;;;;7.43;4.75;;;11.30;99.90;;;;;;4990759;28;20762;-80
2022/06/10 03:40:33;;;;;;;13.95;5.53;;;11.30;99.90;;;;;;4990802;28;20391;-80
2022/06/10 03:43:02;;;;;;;125.10;16.40;;;11.30;99.90;;;;;;4991222;28;20905;-81
2022/06/10 03:45:46;;;;;;;47.55;9.77;;;11.20;99.90;;;;;;5008802;28;20477;-80
2022/06/10 03:48:21;;;;;;;28.40;7.65;;;11.40;99.90;;;;;;5008804;28;20422;-81
2022/06/10 03:50:48;;;;;;;12.15;5.30;;;11.40;99.90;;;;;;4990613;28;20442;-80
2022/06/10 03:53:17;;;;;;;7.97;4.70;;;;;;;;;;4990398;28;20386;-80
2022/06/10 03:55:42;;;;;;;4.90;4.40;;;11.50;99.90;;;;;;4993839;28;20391;-81
2022/06/10 03:58:09;;;;;;;10.27;4.97;;;11.60;99.90;;;;;;4994529;28;20431;-82
2022/06/10 04:00:35;;;;;;;7.15;4.68;;;11.60;99.90;;;;;;5012214;28;20383;-80
2022/06/10 04:03:01;;;;;;;8.68;4.25;;;11.70;99.90;;;;;;4994318;28;20745;-81
2022/06/10 04:05:28;;;;;;;6.23;3.87;;;;;;;;;;5011941;28;20470;-81
2022/06/10 04:07:54;;;;;;;4.97;3.97;;;11.80;99.90;;;;;;5012161;28;20433;-82
2022/06/10 04:10:22;;;;;;;5.10;4.13;;;11.90;99.90;;;;;;4994209;28;20427;-80
2022/06/10 04:12:49;;;;;;;6.05;4.30;;;11.90;99.90;;;;;;5012259;28;20375;-81
2022/06/10 04:15:15;;;;;;;12.52;4.93;;;12.00;99.90;;;;;;5012268;28;20849;-80
2022/06/10 04:17:44;;;;;;;9.15;3.97;;;12.10;99.90;;;;;;5011866;28;20394;-81
2022/06/10 04:20:16;;;;;;;19.88;5.70;;;12.20;99.90;;;;;;4994034;28;20719;-81
2022/06/10 04:22:41;;;;;;;5.53;4.20;;;12.30;99.90;;;;;;5011877;28;20379;-82
2022/06/10 04:25:07;;;;;;;18.53;5.57;;;;;;;;;;4994008;28;20411;-81
2022/06/10 04:27:33;;;;;;;22.73;6.18;;;12.60;99.90;;;;;;5011885;28;20399;-81
2022/06/10 04:29:59;;;;;;;9.70;5.07;;;12.70;99.90;;;;;;5011637;28;20897;-82
2022/06/10 04:32:24;;;;;;;8.20;4.93;;;12.90;99.90;;;;;;4994089;28;20395;-82
2022/06/10 04:34:50;;;;;;;7.40;5.03;;;13.30;99.90;;;;;;5011600;28;20383;-82
2022/06/10 04:37:16;;;;;;;9.70;5.25;;;13.50;99.90;;;;;;5011700;28;20371;-81
2022/06/10 04:39:41;;;;;;;9.15;5.72;;;13.60;99.90;;;;;;5011371;28;20403;-83
2022/06/10 04:42:07;;;;;;;8.57;5.23;;;13.70;99.90;;;;;;5011658;28;20383;-81
2022/06/10 04:44:33;;;;;;;6.03;5.10;;;14.00;99.90;;;;;;5014172;28;20810;-82
2022/06/10 04:47:00;;;;;;;5.53;4.43;;;14.30;99.90;;;;;;5007020;28;20757;-82
2022/06/10 04:49:25;;;;;;;8.33;4.20;;;14.70;99.90;;;;;;4993753;28;20395;-81
2022/06/10 04:51:51;;;;;;;7.47;4.57;;;14.90;99.90;;;;;;4993763;28;20386;-82
2022/06/10 04:54:16;;;;;;;7.28;4.60;;;15.20;99.90;;;;;;4993636;28;20395;-82
2022/06/10 04:56:42;;;;;;;8.90;4.40;;;15.30;99.90;;;;;;5011510;28;20391;-82
2022/06/10 04:59:09;;;;;;;9.05;3.83;;;15.70;99.90;;;;;;5010788;28;20437;-81
2022/06/10 05:01:35;;;;;;;9.43;3.80;;;16.10;99.90;;;;;;4992953;28;20387;-82
2022/06/10 05:04:01;;;;;;;8.23;3.30;;;16.80;99.90;;;;;;5011099;28;20532;-83
2022/06/10 05:06:28;;;;;;;7.72;3.83;;;17.30;99.90;;;;;;5010766;28;20383;-83
2022/06/10 05:08:53;;;;;;;6.68;3.55;;;17.80;99.90;;;;;;5010153;28;20470;-82
2022/06/10 05:11:19;;;;;;;6.30;3.47;;;17.90;99.90;;;;;;5009274;28;20506;-79
2022/06/10 05:13:45;;;;;;;8.40;3.22;;;18.00;99.90;;;;;;5010292;28;20869;-81
2022/06/10 05:16:12;;;;;;;10.80;3.83;;;18.10;99.90;;;;;;5010316;28;20386;-82
2022/06/10 05:18:38;;;;;;;10.00;3.60;;;18.10;99.90;;;;;;5011221;28;20434;-82
2022/06/10 05:21:04;;;;;;;7.53;3.40;;;18.30;99.90;;;;;;5011522;28;20375;-81
2022/06/10 05:23:30;;;;;;;5.33;2.70;;;18.50;99.90;;;;;;5011908;28;20433;-82
2022/06/10 05:25:56;;;;;;;5.70;3.00;;;18.50;99.90;;;;;;4993226;28;20789;-82
2022/06/10 05:28:23;;;;;;;8.02;3.10;;;18.30;99.90;;;;;;5011356;28;20401;-81
2022/06/10 05:30:48;;;;;;;7.97;3.03;;;18.30;99.90;;;;;;5010805;28;20395;-82
2022/06/10 05:33:14;;;;;;;6.30;2.80;;;18.50;99.90;;;;;;5011298;28;20482;-83
2022/06/10 05:35:42;;;;;;;6.05;2.72;;;18.50;99.90;;;;;;5011065;28;20372;-82
2022/06/10 05:38:09;;;;;;;6.22;2.70;;;18.50;99.90;;;;;;4992796;28;20380;-82
2022/06/10 05:40:35;;;;;;;5.53;2.60;;;18.50;99.90;;;;;;5010496;28;20401;-81
2022/06/10 05:43:02;;;;;;;8.63;2.80;;;18.40;99.90;;;;;;4993055;28;20454;-82
2022/06/10 05:45:29;;;;;;;8.03;2.70;;;18.30;99.90;;;;;;5004404;28;20386;-82
2022/06/10 05:48:00;;;;;;;5.40;2.70;;;18.10;99.90;;;;;;5008666;28;20881;-81
2022/06/10 05:50:32;;;;;;;5.57;2.50;;;17.90;99.90;;;;;;5010385;28;20408;-81
2022/06/10 05:52:58;;;;;;;7.03;3.10;;;17.80;99.90;;;;;;5010668;28;20418;-82
2022/06/10 05:55:24;;;;;;;24.75;4.40;;;17.80;99.90;;;;;;4992255;28;20430;-83
2022/06/10 05:57:51;;;;;;;7.28;3.10;;;17.60;99.90;;;;;;5009960;28;20379;-84
2022/06/10 06:00:28;;;;;;;5.47;2.88;;;17.60;99.90;;;;;;5010479;28;20387;-81
2022/06/10 06:02:54;;;;;;;8.38;3.58;;;17.50;99.90;;;;;;4992836;28;20391;-82
2022/06/10 06:05:21;;;;;;;5.57;2.50;;;17.70;99.90;;;;;;5010323;28;20469;-82
2022/06/10 06:07:48;;;;;;;7.13;2.47;;;17.80;99.90;;;;;;5010514;28;20379;-83
2022/06/10 06:10:23;;;;;;;7.05;2.60;;;18.10;99.90;;;;;;4991821;28;20446;-83
2022/06/10 06:12:49;;;;;;;5.30;2.50;;;18.30;99.90;;;;;;5010481;28;20375;-81
2022/06/10 06:15:15;;;;;;;5.95;2.35;;;18.40;99.90;;;;;;4992191;28;20980;-82
2022/06/10 06:17:41;;;;;;;6.75;2.60;;;18.60;99.90;;;;;;4992214;28;20418;-82
2022/06/10 06:20:08;;;;;;;6.55;2.47;;;18.90;99.90;;;;;;5007574;28;20432;-81
2022/06/10 06:22:34;;;;;;;7.10;2.20;;;19.00;99.90;;;;;;5009864;28;20395;-81
2022/06/10 06:25:00;;;;;;;7.35;2.78;;;19.30;99.90;;;;;;5010946;28;20877;-81
2022/06/10 06:27:26;;;;;;;7.82;2.60;;;19.60;99.90;;;;;;4985419;28;20410;-81
2022/06/10 06:29:52;;;;;;;5.68;2.13;;;19.70;99.90;;;;;;4973224;28;20915;-81
2022/06/10 06:32:18;;;;;;;4.83;2.03;;;19.80;99.90;;;;;;4992134;28;20472;-83
2022/06/10 06:34:43;;;;;;;6.13;2.13;;;19.80;99.90;;;;;;4991648;28;20380;-82
2022/06/10 06:37:14;;;;;;;7.87;2.50;;;19.90;99.90;;;;;;5000274;28;20385;-81
2022/06/10 06:39:40;;;;;;;5.85;2.53;;;20.00;99.90;;;;;;4989337;28;20434;-82
2022/06/10 06:42:06;;;;;;;8.05;2.60;;;20.00;99.90;;;;;;5011436;28;20394;-82
2022/06/10 06:44:32;;;;;;;5.90;2.13;;;20.10;99.90;;;;;;5010426;28;20387;-83
2022/06/10 06:46:58;;;;;;;6.00;2.40;;;20.60;99.90;;;;;;5013994;28;20409;-81
2022/06/10 06:49:28;;;;;;;4.53;2.10;;;20.70;99.90;;;;;;5008480;28;21172;-81
2022/06/10 06:51:54;;;;;;;4.68;2.10;;;20.90;99.90;;;;;;5030029;28;20389;-82
2022/06/10 06:54:21;;;;;;;7.93;2.83;;;20.90;99.90;;;;;;5007660;28;20499;-82
2022/06/10 06:56:48;;;;;;;6.88;2.50;;;21.20;99.90;;;;;;5019551;28;20896;-81
2022/06/10 06:59:14;;;;;;;5.72;2.58;;;21.30;99.90;;;;;;5016010;28;20401;-82
2022/06/10 07:01:39;;;;;;;6.40;2.33;;;21.30;99.90;;;;;;5028801;28;20374;-82
2022/06/10 07:04:06;;;;;;;6.43;2.15;;;21.40;99.90;;;;;;4999137;28;20381;-83
2022/06/10 07:06:34;;;;;;;5.30;2.15;;;21.60;99.90;;;;;;4992127;28;20400;-83
2022/06/10 07:08:59;;;;;;;6.50;2.25;;;21.90;99.90;;;;;;4992163;28;20398;-82
2022/06/10 07:11:25;;;;;;;5.60;2.00;;;22.30;99.90;;;;;;4992371;28;20421;-83
2022/06/10 07:13:50;;;;;;;8.50;2.40;;;22.80;99.90;;;;;;5005339;28;20450;-83
2022/06/10 07:16:16;;;;;;;5.85;2.10;;;23.00;99.90;;;;;;5000047;28;20452;-83
2022/06/10 07:18:42;;;;;;;5.60;1.93;;;22.80;99.90;;;;;;5014388;28;20397;-83
2022/06/10 07:21:08;;;;;;;9.98;2.22;;;23.00;99.90;;;;;;4993848;28;20401;-82
2022/06/10 07:23:34;;;;;;;6.68;1.92;;;23.10;99.90;;;;;;5010853;28;20383;-83
2022/06/10 07:26:02;;;;;;;8.15;2.15;;;23.10;99.90;;;;;;5010809;28;20431;-82
2022/06/10 07:28:28;;;;;;;6.65;2.50;;;23.10;99.70;;;;;;5012148;28;20383;-81
2022/06/10 07:30:53;;;;;;;5.60;2.00;;;23.10;99.90;;;;;;5013533;28;20844;-82
2022/06/10 07:33:19;;;;;;;6.40;2.50;;;23.00;99.90;;;;;;4991844;28;20403;-82
2022/06/10 07:35:45;;;;;;;7.37;2.50;;;23.20;99.90;;;;;;5008173;28;20409;-83
2022/06/10 07:38:11;;;;;;;5.10;1.80;;;23.20;99.90;;;;;;5014430;28;20844;-82
2022/06/10 07:43:30;;;;;;;7.25;1.90;;;;;;;;;;5007749;28;20404;-81
2022/06/10 07:45:56;;;;;;;5.30;2.03;;;22.80;99.20;;;;;;5014267;28;20437;-82
2022/06/10 07:48:22;;;;;;;6.65;2.00;;;22.70;97.80;;;;;;5012777;28;20483;-82
2022/06/10 07:50:49;;;;;;;8.40;2.20;;;22.20;98.30;;;;;;5013156;28;20502;-82
2022/06/10 07:53:16;;;;;;;4.95;2.13;;;22.00;99.90;;;;;;4982242;28;20416;-82
2022/06/10 07:55:44;;;;;;;6.40;2.20;;;22.00;99.90;;;;;;4969432;28;20401;-81
2022/06/10 07:58:12;;;;;;;5.97;1.75;;;22.00;99.90;;;;;;4999984;28;20397;-82
2022/06/10 08:00:39;;;;;;;5.22;1.90;;;22.20;98.50;;;;;;5000014;28;20400;-81
2022/06/10 08:03:05;;;;;;;4.85;1.60;;;21.60;97.50;;;;;;4999061;28;20457;-81
2022/06/10 08:05:32;;;;;;;5.20;2.20;;;21.40;98.80;;;;;;5015176;28;20386;-82
2022/06/10 08:07:57;;;;;;;4.85;1.80;;;21.40;99.70;;;;;;5013142;28;20383;-83
2022/06/10 08:10:33;;;;;;;5.73;2.00;;;21.40;99.90;;;;;;5012993;28;21175;-83
2022/06/10 08:12:59;;;;;;;3.17;1.43;;;21.70;99.90;;;;;;4995125;28;20398;-82
2022/06/10 08:15:25;;;;;;;6.40;1.90;;;21.90;99.10;;;;;;5002579;28;20381;-83
2022/06/10 08:17:51;;;;;;;6.00;1.88;;;22.20;98.80;;;;;;5014587;28;20381;-82
2022/06/10 08:22:32;;;;;;;7.72;1.95;;;22.40;97.90;;;;;;5015465;28;20901;-83
2022/06/10 08:23:13;;;;;;;7.37;1.93;;;22.20;97.80;;;;;;5032251;28;20385;-81
2022/06/10 08:25:40;;;;;;;11.25;2.47;;;22.20;99.90;;;;;;5014674;28;20463;-83
2022/06/10 08:28:06;;;;;;;9.20;2.28;;;22.40;99.90;;;;;;5032087;28;20396;-84
2022/06/10 08:30:32;;;;;;;8.05;2.00;;;22.70;98.50;;;;;;5031533;28;20409;-84
2022/06/10 08:32:57;;;;;;;8.13;2.08;;;22.90;99.00;;;;;;5032172;28;20440;-83
2022/06/10 08:35:23;;;;;;;7.30;1.90;;;23.10;98.80;;;;;;5032501;28;20920;-83
2022/06/10 08:37:49;;;;;;;7.40;2.50;;;;;;;;;;5033233;28;20893;-82
2022/06/10 08:40:27;;;;;;;6.22;2.08;;;23.10;99.90;;;;;;5033767;28;20377;-82
2022/06/10 08:42:54;;;;;;;7.70;2.30;;;23.10;99.90;;;;;;5031985;28;20385;-83
2022/06/10 08:45:35;;;;;;;6.35;2.05;;;;;;;;;;4989586;28;20403;-84
2022/06/10 08:48:01;;;;;;;5.63;2.10;;;;;;;;;;4974889;28;20385;-83
2022/06/10 08:50:36;;;;;;;5.03;1.80;;;;;;;;;;4992406;28;20492;-82
2022/06/10 08:53:28;;;;;;;6.80;1.95;;;23.30;99.90;;;;;;4992220;28;20871;-83
2022/06/10 08:56:05;;;;;;;7.22;1.88;;;;;;;;;;4967255;28;20399;-82
2022/06/10 08:58:54;;;;;;;6.97;2.40;;;;;;;;;;4993164;28;20392;-83
2022/06/10 09:01:23;;;;;;;5.93;1.90;;;23.70;95.30;;;;;;4972042;28;20460;-83
2022/06/10 09:04:24;;;;;;;7.93;2.10;;;23.80;95.30;;;;;;4994547;28;20368;-83
2022/06/10 09:06:54;;;;;;;6.55;2.00;;;24.00;99.90;;;;;;5007278;28;20478;-84
2022/06/10 09:09:25;;;;;;;6.03;2.00;;;24.00;95.20;;;;;;5012240;28;20375;-82
2022/06/10 09:12:03;;;;;;;11.07;2.17;;;24.20;95.00;;;;;;4993476;28;20419;-83
2022/06/10 09:14:29;;;;;;;7.63;2.00;;;24.20;95.10;;;;;;4994139;28;20388;-82
2022/06/10 09:16:58;;;;;;;7.43;2.10;;;24.30;93.00;;;;;;4989925;28;20402;-83
2022/06/10 09:19:39;;;;;;;8.27;1.87;;;24.20;93.50;;;;;;5012018;28;20379;-83
2022/06/10 09:22:26;;;;;;;6.93;2.10;;;24.50;90.50;;;;;;5011014;28;20395;-83
2022/06/10 09:25:14;;;;;;;7.82;1.98;;;24.40;90.90;;;;;;4993821;28;20434;-83
2022/06/10 09:27:44;;;;;;;7.23;1.97;;;24.20;93.00;;;;;;5005351;28;20432;-83
2022/06/10 09:30:14;;;;;;;6.50;2.03;;;24.40;91.30;;;;;;4973643;28;20411;-83
2022/06/10 09:32:55;;;;;;;4.65;1.80;;;24.40;91.00;;;;;;5009808;28;20509;-81
2022/06/10 09:35:51;;;;;;;5.32;1.50;;;24.20;94.00;;;;;;5011178;28;20449;-84
2022/06/10 09:38:19;;;;;;;6.85;2.00;;;24.40;93.00;;;;;;5011759;28;20916;-84
2022/06/10 09:41:04;;;;;;;10.50;2.40;;;24.60;92.20;;;;;;5011474;28;20388;-84
2022/06/10 09:43:39;;;;;;;5.30;2.20;;;24.70;92.80;;;;;;4999251;28;20403;-83
2022/06/10 09:46:13;;;;;;;4.73;1.80;;;24.90;90.20;;;;;;5002089;28;20403;-84
2022/06/10 09:49:03;;;;;;;5.50;1.80;;;24.30;92.70;;;;;;4974033;28;20408;-83
2022/06/10 09:51:56;;;;;;;5.67;2.10;;;24.20;91.40;;;;;;4992914;28;20407;-83
2022/06/10 09:54:40;;;;;;;5.65;1.70;;;24.20;92.90;;;;;;4996288;28;20475;-83
2022/06/10 09:57:50;;;;;;;7.40;2.08;;;24.00;91.00;;;;;;4992176;28;21118;-83
2022/06/10 10:00:25;;;;;;;4.72;1.75;;;23.90;91.80;;;;;;5000116;28;20409;-84
2022/06/10 10:03:12;;;;;;;6.00;1.80;;;24.40;99.90;;;;;;5009795;28;20383;-82
2022/06/10 10:05:44;;;;;;;5.85;1.88;;;;;;;;;;5020121;28;20376;-82
2022/06/10 10:08:10;;;;;;;4.80;1.75;;;;;;;;;;4992624;28;20387;-83
2022/06/10 10:10:36;;;;;;;7.57;2.10;;;;;;;;;;5010827;28;20406;-84
2022/06/10 10:13:12;;;;;;;7.87;1.90;;;;;;;;;;4992696;28;20769;-83
2022/06/10 10:15:53;;;;;;;9.02;1.77;;;;;;;;;;4992360;28;20375;-84
2022/06/10 10:18:48;;;;;;;5.85;1.70;;;;;;;;;;5001410;28;20901;-82
2022/06/10 10:21:18;;;;;;;9.63;2.63;;;;;;;;;;4938768;28;20432;-81
2022/06/10 10:23:47;;;;;;;6.85;2.17;;;;;;;;;;4984524;28;20402;-82
2022/06/10 10:26:25;;;;;;;6.85;1.80;;;;;;;;;;4992192;28;20742;-84
2022/06/10 10:28:56;;;;;;;7.50;2.15;;;;;;;;;;4993681;28;20415;-84
2022/06/10 10:31:24;;;;;;;5.15;1.52;;;;;;;;;;5005644;28;20413;-83
2022/06/10 10:33:50;;;;;;;4.90;1.73;;;;;;;;;;4972749;28;20945;-83
2022/06/10 10:36:22;;;;;;;4.75;2.00;;;;;;;;;;4976812;28;20400;-83
2022/06/10 10:38:51;;;;;;;4.63;1.60;;;;;;;;;;4996850;28;20381;-85
2022/06/10 10:41:20;;;;;;;7.03;2.00;;;;;;;;;;4972771;28;20446;-83
2022/06/10 10:43:49;;;;;;;7.80;2.08;;;;;;;;;;4990153;28;20393;-83
2022/06/10 10:46:36;;;;;;;8.80;2.10;;;;;;;;;;4990272;28;20935;-83
2022/06/10 10:49:26;;;;;;;5.93;1.98;;;;;;;;;;5006037;28;20381;-84
2022/06/10 10:51:52;;;;;;;4.13;1.70;;;;;;;;;;4992667;28;20457;-83
2022/06/10 10:54:30;;;;;;;6.40;1.88;;;;;;;;;;5005678;28;20379;-85
2022/06/10 10:56:58;;;;;;;5.23;1.80;;;;;;;;;;5010084;28;20745;-84
2022/06/10 10:59:41;;;;;;;10.98;2.47;;;;;;;;;;5009461;28;20442;-82
2022/06/10 11:02:31;;;;;;;5.20;1.83;;;;;;;;;;4991475;28;20438;-85
2022/06/10 11:05:16;;;;;;;4.93;1.85;;;;;;;;;;5008985;28;20470;-83
2022/06/10 11:07:46;;;;;;;7.65;2.17;;;;;;;;;;4991255;28;20398;-84
2022/06/10 11:10:25;;;;;;;4.10;1.70;;;;;;;;;;4990667;28;20417;-82
2022/06/10 11:12:51;;;;;;;5.75;1.60;;;;;;;;;;4990558;28;20446;-83
2022/06/10 11:15:27;;;;;;;3.97;1.60;;;;;;;;;;5008478;28;20403;-83
2022/06/10 11:17:53;;;;;;;7.32;1.60;;;;;;;;;;4991363;28;20464;-82
2022/06/10 11:20:25;;;;;;;6.25;2.00;;;;;;;;;;5008374;28;20403;-83
2022/06/10 11:23:09;;;;;;;5.65;2.00;;;;;;;;;;5008405;28;20375;-84
2022/06/10 11:25:35;;;;;;;5.82;1.80;;;;;;;;;;5009474;28;20375;-84
2022/06/10 11:28:03;;;;;;;4.10;1.60;;;;;;;;;;4991051;28;20417;-83
2022/06/10 11:30:34;;;;;;;6.65;1.73;;;;;;;;;;5008969;28;20410;-84
2022/06/10 11:33:30;;;;;;;4.43;1.58;;;;;;;;;;5009180;28;20371;-84
2022/06/10 11:36:13;;;;;;;6.33;1.57;;;;;;;;;;5000800;28;20375;-83
2022/06/10 11:38:48;;;;;;;6.53;1.63;;;;;;;;;;5009298;28;20386;-83
2022/06/10 11:41:34;;;;;;;4.85;1.65;;;;;;;;;;5008755;28;20434;-83
2022/06/10 11:44:06;;;;;;;4.38;1.60;;;;;;;;;;5007143;28;20375;-83
2022/06/10 11:46:40;;;;;;;9.90;2.17;;;;;;;;;;5009146;28;20548;-83
2022/06/10 11:49:12;;;;;;;6.20;1.87;;;;;;;;;;5007889;28;20374;-84
2022/06/10 11:51:46;;;;;;;5.45;1.48;;;;;;;;;;5008385;28;20414;-83
2022/06/10 11:54:29;;;;;;;6.77;1.63;;;;;;;;;;5008036;28;20391;-85
2022/06/10 12:00:01;;;;;;;4.77;1.80;;;;;;;;;;5010226;28;20428;-84
2022/06/10 12:02:31;;;;;;;3.80;1.83;;;;;;;;;;4986407;28;20402;-84
2022/06/10 12:05:09;;;;;;;4.80;1.48;;;;;;;;;;5008145;28;20376;-83
2022/06/10 12:07:38;;;;;;;3.92;1.42;;;;;;;;;;4990876;28;20399;-84
2022/06/10 12:10:06;;;;;;;3.80;1.52;;;;;;;;;;5008525;28;20382;-84
2022/06/10 12:12:38;;;;;;;4.77;1.70;;;;;;;;;;5014215;28;20395;-83
2022/06/10 12:15:27;;;;;;;4.63;1.48;;;;;;;;;;5008229;28;20391;-82
2022/06/10 12:17:56;;;;;;;4.78;1.48;;;;;;;;;;5006946;28;20473;-83
2022/06/10 12:20:25;;;;;;;5.35;1.73;;;;;;;;;;4994210;28;20381;-84
2022/06/10 12:22:51;;;;;;;4.83;1.70;;;;;;;;;;5000753;28;20391;-84
2022/06/10 12:25:20;;;;;;;5.15;1.42;;;;;;;;;;5012053;28;20546;-83
2022/06/10 12:27:52;;;;;;;4.10;1.52;;;;;;;;;;5012384;28;20448;-83
2022/06/10 12:30:20;;;;;;;3.33;1.60;;;;;;;;;;4998200;28;20470;-84
2022/06/10 12:33:08;;;;;;;2.53;1.20;;;;;;;;;;4974543;28;20468;-85
2022/06/10 12:35:37;;;;;;;3.80;1.73;;;;;;;;;;4988850;28;20487;-84
2022/06/10 12:38:21;;;;;;;4.57;1.40;;;;;;;;;;4992431;28;20452;-84
2022/06/10 12:40:47;;;;;;;4.47;1.75;;;;;;;;;;4990544;28;20453;-84
2022/06/10 12:43:26;;;;;;;3.78;1.50;;;;;;;;;;5011630;28;20844;-84
2022/06/10 12:45:54;;;;;;;3.60;1.63;;;;;;;;;;5009692;28;20377;-84
2022/06/10 12:48:28;;;;;;;5.13;1.50;;;;;;;;;;4993777;28;20381;-84
2022/06/10 12:51:12;;;;;;;4.10;1.40;;;;;;;;;;4993910;28;20419;-84
2022/06/10 12:53:38;;;;;;;5.03;1.60;;;;;;;;;;5011828;28;20888;-84
2022/06/10 12:56:33;;;;;;;5.05;1.77;;;;;;;;;;4989127;28;20488;-84
2022/06/10 12:59:09;;;;;;;4.50;1.48;;;;;;;;;;5008433;28;20431;-84
2022/06/10 13:01:35;;;;;;;5.00;1.90;;;;;;;;;;4993217;28;20945;-83
2022/06/10 13:04:03;;;;;;;4.50;1.70;;;;;;;;;;4993983;28;20391;-84
2022/06/10 13:06:32;;;;;;;12.45;2.03;;;;;;;;;;5003036;28;20479;-84
2022/06/10 13:09:10;;;;;;;5.30;1.58;;;;;;;;;;4974244;28;20381;-84
2022/06/10 13:11:39;;;;;;;4.20;1.20;;;;;;;;;;4974002;28;20417;-84
2022/06/10 13:14:20;;;;;;;4.78;1.38;;;;;;;;;;4973701;28;20395;-84
2022/06/10 13:16:48;;;;;;;3.33;1.48;;;;;;;;;;5006395;28;20391;-84
2022/06/10 13:19:36;;;;;;;3.88;1.50;;;;;;;;;;4993268;28;20769;-84
2022/06/10 13:22:20;;;;;;;3.92;1.17;;;;;;;;;;5019842;28;20369;-84
2022/06/10 13:24:52;;;;;;;3.95;1.40;;;;;;;;;;5030848;28;20396;-84
2022/06/10 13:27:28;;;;;;;5.25;2.00;;;;;;;;;;5014012;28;20389;-84
2022/06/10 13:29:56;;;;;;;5.65;1.52;;;;;;;;;;5016445;28;20865;-84
2022/06/10 13:32:23;;;;;;;3.70;1.20;;;;;;;;;;5007154;28;20877;-84
2022/06/10 13:35:01;;;;;;;3.40;1.40;;;;;;;;;;4993190;28;20771;-84
2022/06/10 13:37:29;;;;;;;5.28;1.60;;;;;;;;;;4998137;28;20445;-84
2022/06/10 13:39:59;;;;;;;5.03;1.65;;;;;;;;;;5019079;28;20379;-84
2022/06/10 13:42:32;;;;;;;4.22;1.50;;;;;;;;;;5018550;28;20392;-85
2022/06/10 13:45:39;;;;;;;4.38;1.48;;;;;;;;;;4997386;28;20459;-85
2022/06/10 13:48:25;;;;;;;3.80;1.42;;;;;;;;;;4944030;28;20754;-83
2022/06/10 13:51:16;;;;;;;4.10;1.20;;;;;;;;;;4940898;29;20419;-85
2022/06/10 13:53:54;;;;;;;4.80;1.65;;;;;;;;;;5001075;28;21610;-83
2022/06/10 13:56:24;;;;;;;6.10;1.70;;;;;;;;;;4999980;28;20397;-84